sensor_id;sensor_type;location;lat;lon;timestamp;pressure;altitude;pressure_sealevel;temperature;humidity
70248;BME280;57641;51.416;5.506;2022-08-21T00:01:07;101788.16;;;20.41;52.99
70248;BME280;57641;51.416;5.506;2022-08-21T00:03:35;101790.69;;;20.28;53.17
70248;BME280;57641;51.416;5.506;2022-08-21T00:06:02;101784.84;;;20.24;52.90
70248;BME280;57641;51.416;5.506;2022-08-21T00:08:28;101789.78;;;20.20;53.04
70248;BME280;57641;51.416;5.506;2022-08-21T00:10:53;101789.91;;;20.12;53.10
70248;BME280;57641;51.416;5.506;2022-08-21T00:13:19;101788.41;;;20.10;53.55
70248;BME280;57641;51.416;5.506;2022-08-21T00:15:46;101783.84;;;20.10;53.58
70248;BME280;57641;51.416;5.506;2022-08-21T00:18:12;101787.22;;;20.12;53.91
70248;BME280;57641;51.416;5.506;2022-08-21T00:20:40;101787.88;;;20.14;53.63
70248;BME280;57641;51.416;5.506;2022-08-21T00:23:06;101782.63;;;20.13;53.19
70248;BME280;57641;51.416;5.506;2022-08-21T00:25:32;101784.88;;;20.09;53.63
70248;BME280;57641;51.416;5.506;2022-08-21T00:27:58;101776.50;;;20.04;53.50
70248;BME280;57641;51.416;5.506;2022-08-21T00:30:25;101777.28;;;19.98;53.34
70248;BME280;57641;51.416;5.506;2022-08-21T00:32:52;101773.47;;;19.93;53.81
70248;BME280;57641;51.416;5.506;2022-08-21T00:35:21;101772.56;;;19.86;53.80
70248;BME280;57641;51.416;5.506;2022-08-21T00:37:47;101775.44;;;19.84;54.32
70248;BME280;57641;51.416;5.506;2022-08-21T00:40:15;101770.88;;;19.85;53.71
70248;BME280;57641;51.416;5.506;2022-08-21T00:42:42;101765.84;;;19.81;54.18
70248;BME280;57641;51.416;5.506;2022-08-21T00:45:09;101762.31;;;19.81;54.34
70248;BME280;57641;51.416;5.506;2022-08-21T00:47:35;101766.22;;;19.78;54.09
70248;BME280;57641;51.416;5.506;2022-08-21T00:50:03;101766.63;;;19.75;54.04
70248;BME280;57641;51.416;5.506;2022-08-21T00:52:32;101766.44;;;19.77;54.42
70248;BME280;57641;51.416;5.506;2022-08-21T00:54:59;101769.69;;;19.72;54.09
70248;BME280;57641;51.416;5.506;2022-08-21T00:57:38;101766.19;;;19.72;54.56
70248;BME280;57641;51.416;5.506;2022-08-21T01:00:09;101761.97;;;19.69;54.57
70248;BME280;57641;51.416;5.506;2022-08-21T01:02:36;101770.75;;;19.71;54.43
70248;BME280;57641;51.416;5.506;2022-08-21T01:05:03;101772.41;;;19.72;54.05
70248;BME280;57641;51.416;5.506;2022-08-21T01:07:28;101771.31;;;19.67;54.14
70248;BME280;57641;51.416;5.506;2022-08-21T01:09:54;101771.94;;;19.69;54.69
70248;BME280;57641;51.416;5.506;2022-08-21T01:12:19;101765.97;;;19.73;54.23
70248;BME280;57641;51.416;5.506;2022-08-21T01:14:45;101773.44;;;19.71;54.35
70248;BME280;57641;51.416;5.506;2022-08-21T01:17:13;101771.94;;;19.69;53.89
70248;BME280;57641;51.416;5.506;2022-08-21T01:19:39;101771.69;;;19.64;53.80
70248;BME280;57641;51.416;5.506;2022-08-21T01:22:05;101761.63;;;19.58;54.29
70248;BME280;57641;51.416;5.506;2022-08-21T01:24:31;101766.66;;;19.61;54.35
70248;BME280;57641;51.416;5.506;2022-08-21T01:26:58;101766.13;;;19.51;54.31
70248;BME280;57641;51.416;5.506;2022-08-21T01:32:06;101768.56;;;19.46;54.79
70248;BME280;57641;51.416;5.506;2022-08-21T01:34:34;101759.66;;;19.37;54.47
70248;BME280;57641;51.416;5.506;2022-08-21T01:37:02;101763.88;;;19.39;54.70
70248;BME280;57641;51.416;5.506;2022-08-21T01:39:28;101758.06;;;19.42;54.53
70248;BME280;57641;51.416;5.506;2022-08-21T01:41:54;101762.47;;;19.44;54.33
70248;BME280;57641;51.416;5.506;2022-08-21T01:44:21;101756.91;;;19.45;54.48
70248;BME280;57641;51.416;5.506;2022-08-21T01:46:47;101755.84;;;19.46;54.55
70248;BME280;57641;51.416;5.506;2022-08-21T01:49:14;101765.84;;;19.46;54.28
70248;BME280;57641;51.416;5.506;2022-08-21T01:51:41;101758.25;;;19.41;54.59
70248;BME280;57641;51.416;5.506;2022-08-21T01:54:07;101758.47;;;19.39;54.64
70248;BME280;57641;51.416;5.506;2022-08-21T01:56:40;101758.25;;;19.41;54.52
70248;BME280;57641;51.416;5.506;2022-08-21T01:59:08;101751.38;;;19.38;54.39
70248;BME280;57641;51.416;5.506;2022-08-21T02:01:34;101746.31;;;19.35;54.60
70248;BME280;57641;51.416;5.506;2022-08-21T02:03:59;101747.81;;;19.38;55.12
70248;BME280;57641;51.416;5.506;2022-08-21T02:06:26;101746.97;;;19.37;54.53
70248;BME280;57641;51.416;5.506;2022-08-21T02:08:52;101739.72;;;19.38;54.40
70248;BME280;57641;51.416;5.506;2022-08-21T02:11:19;101741.56;;;19.37;54.88
70248;BME280;57641;51.416;5.506;2022-08-21T02:13:45;101745.13;;;19.38;54.46
70248;BME280;57641;51.416;5.506;2022-08-21T02:16:12;101734.69;;;19.35;54.81
70248;BME280;57641;51.416;5.506;2022-08-21T02:18:38;101738.59;;;19.32;54.35
70248;BME280;57641;51.416;5.506;2022-08-21T02:21:04;101737.09;;;19.30;54.39
70248;BME280;57641;51.416;5.506;2022-08-21T02:23:31;101736.03;;;19.24;54.36
70248;BME280;57641;51.416;5.506;2022-08-21T02:25:58;101736.50;;;19.13;54.47
70248;BME280;57641;51.416;5.506;2022-08-21T02:28:25;101726.88;;;19.11;54.62
70248;BME280;57641;51.416;5.506;2022-08-21T02:30:51;101729.75;;;19.09;54.80
70248;BME280;57641;51.416;5.506;2022-08-21T02:33:17;101729.47;;;19.04;54.61
70248;BME280;57641;51.416;5.506;2022-08-21T02:35:44;101729.47;;;19.04;54.86
70248;BME280;57641;51.416;5.506;2022-08-21T02:38:14;101723.63;;;19.01;54.70
70248;BME280;57641;51.416;5.506;2022-08-21T02:40:43;101730.50;;;18.88;55.06
70248;BME280;57641;51.416;5.506;2022-08-21T02:43:09;101736.31;;;18.85;55.39
70248;BME280;57641;51.416;5.506;2022-08-21T02:45:36;101737.59;;;18.89;55.50
70248;BME280;57641;51.416;5.506;2022-08-21T02:48:05;101737.88;;;18.94;55.69
70248;BME280;57641;51.416;5.506;2022-08-21T02:50:35;101736.84;;;18.95;55.36
70248;BME280;57641;51.416;5.506;2022-08-21T02:53:01;101742.09;;;18.97;55.51
70248;BME280;57641;51.416;5.506;2022-08-21T02:55:29;101743.84;;;18.90;55.13
70248;BME280;57641;51.416;5.506;2022-08-21T02:57:56;101741.41;;;18.95;55.57
70248;BME280;57641;51.416;5.506;2022-08-21T03:00:25;101733.97;;;18.97;55.64
70248;BME280;57641;51.416;5.506;2022-08-21T03:02:51;101734.72;;;18.91;55.18
70248;BME280;57641;51.416;5.506;2022-08-21T03:05:17;101739.00;;;18.85;54.95
70248;BME280;57641;51.416;5.506;2022-08-21T03:07:44;101728.66;;;18.89;55.12
70248;BME280;57641;51.416;5.506;2022-08-21T03:10:12;101734.78;;;18.83;55.41
70248;BME280;57641;51.416;5.506;2022-08-21T03:12:38;101738.53;;;18.82;55.64
70248;BME280;57641;51.416;5.506;2022-08-21T03:15:06;101735.84;;;18.82;55.69
70248;BME280;57641;51.416;5.506;2022-08-21T03:17:33;101731.47;;;18.81;55.90
70248;BME280;57641;51.416;5.506;2022-08-21T03:19:59;101732.66;;;18.78;56.02
70248;BME280;57641;51.416;5.506;2022-08-21T03:22:26;101737.50;;;18.83;56.19
70248;BME280;57641;51.416;5.506;2022-08-21T03:24:51;101731.81;;;18.78;56.63
70248;BME280;57641;51.416;5.506;2022-08-21T03:27:17;101722.22;;;18.75;56.94
70248;BME280;57641;51.416;5.506;2022-08-21T03:29:42;101725.78;;;18.76;57.13
70248;BME280;57641;51.416;5.506;2022-08-21T03:32:08;101729.03;;;18.71;57.09
70248;BME280;57641;51.416;5.506;2022-08-21T03:34:35;101731.19;;;18.76;57.32
70248;BME280;57641;51.416;5.506;2022-08-21T03:37:02;101721.38;;;18.75;57.32
70248;BME280;57641;51.416;5.506;2022-08-21T03:39:27;101723.72;;;18.78;57.35
70248;BME280;57641;51.416;5.506;2022-08-21T03:41:53;101725.56;;;18.77;57.32
70248;BME280;57641;51.416;5.506;2022-08-21T03:44:19;101727.47;;;18.77;57.37
70248;BME280;57641;51.416;5.506;2022-08-21T03:46:45;101733.78;;;18.84;57.16
70248;BME280;57641;51.416;5.506;2022-08-21T03:49:10;101732.66;;;18.78;57.10
70248;BME280;57641;51.416;5.506;2022-08-21T03:51:36;101732.31;;;18.81;56.99
70248;BME280;57641;51.416;5.506;2022-08-21T03:54:02;101731.75;;;18.86;56.64
70248;BME280;57641;51.416;5.506;2022-08-21T03:56:28;101731.56;;;18.87;56.55
70248;BME280;57641;51.416;5.506;2022-08-21T03:58:53;101726.91;;;18.81;56.68
70248;BME280;57641;51.416;5.506;2022-08-21T04:01:19;101723.06;;;18.76;56.32
70248;BME280;57641;51.416;5.506;2022-08-21T04:03:44;101727.91;;;18.80;56.31
70248;BME280;57641;51.416;5.506;2022-08-21T04:06:10;101728.09;;;18.79;56.25
70248;BME280;57641;51.416;5.506;2022-08-21T04:08:35;101727.13;;;18.72;56.07
70248;BME280;57641;51.416;5.506;2022-08-21T04:11:01;101721.75;;;18.72;56.08
70248;BME280;57641;51.416;5.506;2022-08-21T04:13:27;101723.34;;;18.66;55.70
70248;BME280;57641;51.416;5.506;2022-08-21T04:15:54;101722.69;;;18.64;56.02
70248;BME280;57641;51.416;5.506;2022-08-21T04:18:19;101721.47;;;18.67;55.97
70248;BME280;57641;51.416;5.506;2022-08-21T04:20:48;101732.81;;;18.62;56.34
70248;BME280;57641;51.416;5.506;2022-08-21T04:23:14;101725.34;;;18.49;56.29
70248;BME280;57641;51.416;5.506;2022-08-21T04:25:40;101724.38;;;18.42;56.64
70248;BME280;57641;51.416;5.506;2022-08-21T04:28:05;101725.88;;;18.45;57.16
70248;BME280;57641;51.416;5.506;2022-08-21T04:30:32;101732.78;;;18.47;57.45
70248;BME280;57641;51.416;5.506;2022-08-21T04:32:57;101733.91;;;18.53;57.35
70248;BME280;57641;51.416;5.506;2022-08-21T04:35:24;101734.69;;;18.62;56.90
70248;BME280;57641;51.416;5.506;2022-08-21T04:37:50;101738.22;;;18.62;56.97
70248;BME280;57641;51.416;5.506;2022-08-21T04:40:17;101736.38;;;18.63;56.80
70248;BME280;57641;51.416;5.506;2022-08-21T04:42:46;101744.28;;;18.64;57.16
70248;BME280;57641;51.416;5.506;2022-08-21T04:45:25;101745.78;;;18.67;56.94
70248;BME280;57641;51.416;5.506;2022-08-21T04:47:52;101747.06;;;18.56;56.67
70248;BME280;57641;51.416;5.506;2022-08-21T04:50:20;101751.97;;;18.52;57.32
70248;BME280;57641;51.416;5.506;2022-08-21T04:52:47;101748.25;;;18.53;57.17
70248;BME280;57641;51.416;5.506;2022-08-21T04:55:13;101749.16;;;18.46;57.19
70248;BME280;57641;51.416;5.506;2022-08-21T04:57:39;101742.25;;;18.43;57.42
70248;BME280;57641;51.416;5.506;2022-08-21T05:00:06;101750.66;;;18.48;57.45
70248;BME280;57641;51.416;5.506;2022-08-21T05:02:32;101753.19;;;18.50;57.35
70248;BME280;57641;51.416;5.506;2022-08-21T05:04:58;101750.94;;;18.53;57.09
70248;BME280;57641;51.416;5.506;2022-08-21T05:07:26;101748.94;;;18.55;57.09
70248;BME280;57641;51.416;5.506;2022-08-21T05:09:53;101744.84;;;18.60;57.06
70248;BME280;57641;51.416;5.506;2022-08-21T05:12:19;101757.78;;;18.64;57.09
70248;BME280;57641;51.416;5.506;2022-08-21T05:14:45;101747.16;;;18.63;57.25
70248;BME280;57641;51.416;5.506;2022-08-21T05:17:12;101747.84;;;18.65;57.18
70248;BME280;57641;51.416;5.506;2022-08-21T05:19:38;101748.69;;;18.65;57.06
70248;BME280;57641;51.416;5.506;2022-08-21T05:22:03;101761.50;;;18.63;57.24
70248;BME280;57641;51.416;5.506;2022-08-21T05:24:29;101765.22;;;18.62;57.39
70248;BME280;57641;51.416;5.506;2022-08-21T05:26:54;101761.69;;;18.62;57.11
70248;BME280;57641;51.416;5.506;2022-08-21T05:29:20;101756.50;;;18.60;57.43
70248;BME280;57641;51.416;5.506;2022-08-21T05:31:47;101758.19;;;18.61;57.37
70248;BME280;57641;51.416;5.506;2022-08-21T05:34:14;101759.47;;;18.65;57.45
70248;BME280;57641;51.416;5.506;2022-08-21T05:36:40;101756.13;;;18.63;57.33
70248;BME280;57641;51.416;5.506;2022-08-21T05:39:05;101762.66;;;18.69;57.47
70248;BME280;57641;51.416;5.506;2022-08-21T05:41:31;101765.34;;;18.69;57.78
70248;BME280;57641;51.416;5.506;2022-08-21T05:43:57;101769.00;;;18.76;58.09
70248;BME280;57641;51.416;5.506;2022-08-21T05:46:22;101766.38;;;18.82;58.03
70248;BME280;57641;51.416;5.506;2022-08-21T05:48:47;101770.59;;;18.85;57.85
70248;BME280;57641;51.416;5.506;2022-08-21T05:51:14;101769.66;;;18.92;57.87
70248;BME280;57641;51.416;5.506;2022-08-21T05:53:41;101778.06;;;18.97;58.08
70248;BME280;57641;51.416;5.506;2022-08-21T05:56:08;101776.00;;;18.99;58.12
70248;BME280;57641;51.416;5.506;2022-08-21T05:58:35;101770.31;;;19.09;58.35
70248;BME280;57641;51.416;5.506;2022-08-21T06:01:01;101780.75;;;19.12;58.59
70248;BME280;57641;51.416;5.506;2022-08-21T06:03:33;101777.31;;;19.18;58.52
70248;BME280;57641;51.416;5.506;2022-08-21T06:05:59;101772.19;;;19.23;58.58
70248;BME280;57641;51.416;5.506;2022-08-21T06:08:25;101774.50;;;19.26;58.96
70248;BME280;57641;51.416;5.506;2022-08-21T06:10:52;101775.63;;;19.32;58.91
70248;BME280;57641;51.416;5.506;2022-08-21T06:13:19;101781.31;;;19.37;58.93
70248;BME280;57641;51.416;5.506;2022-08-21T06:15:47;101777.19;;;19.41;59.16
70248;BME280;57641;51.416;5.506;2022-08-21T06:18:13;101777.56;;;19.53;58.90
70248;BME280;57641;51.416;5.506;2022-08-21T06:20:40;101781.03;;;19.61;59.06
70248;BME280;57641;51.416;5.506;2022-08-21T06:23:06;101782.16;;;19.67;58.78
70248;BME280;57641;51.416;5.506;2022-08-21T06:25:32;101777.44;;;19.75;58.52
70248;BME280;57641;51.416;5.506;2022-08-21T06:28:08;101775.19;;;19.79;58.98
70248;BME280;57641;51.416;5.506;2022-08-21T06:30:35;101781.53;;;19.86;58.70
70248;BME280;57641;51.416;5.506;2022-08-21T06:33:02;101774.88;;;19.89;58.48
70248;BME280;57641;51.416;5.506;2022-08-21T06:35:28;101778.75;;;20.01;58.73
70248;BME280;57641;51.416;5.506;2022-08-21T06:37:56;101776.56;;;20.11;57.72
70248;BME280;57641;51.416;5.506;2022-08-21T06:40:22;101781.22;;;20.17;57.86
70248;BME280;57641;51.416;5.506;2022-08-21T06:42:47;101775.66;;;20.25;57.84
70248;BME280;57641;51.416;5.506;2022-08-21T06:45:13;101783.50;;;20.35;57.55
70248;BME280;57641;51.416;5.506;2022-08-21T06:47:39;101779.13;;;20.34;57.50
70248;BME280;57641;51.416;5.506;2022-08-21T06:50:06;101780.22;;;20.39;57.73
70248;BME280;57641;51.416;5.506;2022-08-21T06:52:34;101780.53;;;20.51;57.54
70248;BME280;57641;51.416;5.506;2022-08-21T06:54:59;101776.38;;;20.55;57.96
70248;BME280;57641;51.416;5.506;2022-08-21T06:57:25;101788.75;;;20.64;57.71
70248;BME280;57641;51.416;5.506;2022-08-21T06:59:51;101788.16;;;20.69;57.67
70248;BME280;57641;51.416;5.506;2022-08-21T07:02:16;101779.28;;;20.81;57.27
70248;BME280;57641;51.416;5.506;2022-08-21T07:04:42;101788.56;;;20.93;57.00
70248;BME280;57641;51.416;5.506;2022-08-21T07:07:08;101789.00;;;20.97;57.40
70248;BME280;57641;51.416;5.506;2022-08-21T07:09:34;101786.75;;;21.07;57.56
70248;BME280;57641;51.416;5.506;2022-08-21T07:11:59;101784.97;;;21.14;56.77
70248;BME280;57641;51.416;5.506;2022-08-21T07:14:25;101776.84;;;21.14;56.91
70248;BME280;57641;51.416;5.506;2022-08-21T07:16:51;101776.03;;;21.20;57.08
70248;BME280;57641;51.416;5.506;2022-08-21T07:19:17;101763.16;;;21.35;57.37
70248;BME280;57641;51.416;5.506;2022-08-21T07:21:43;101766.13;;;21.47;57.17
70248;BME280;57641;51.416;5.506;2022-08-21T07:24:08;101776.16;;;21.53;56.97
70248;BME280;57641;51.416;5.506;2022-08-21T07:26:34;101769.91;;;21.53;56.45
70248;BME280;57641;51.416;5.506;2022-08-21T07:28:59;101770.16;;;21.64;56.68
70248;BME280;57641;51.416;5.506;2022-08-21T07:31:26;101775.84;;;21.76;56.36
70248;BME280;57641;51.416;5.506;2022-08-21T07:33:52;101767.09;;;21.80;56.91
70248;BME280;57641;51.416;5.506;2022-08-21T07:36:18;101773.38;;;21.87;57.17
70248;BME280;57641;51.416;5.506;2022-08-21T07:38:44;101770.03;;;21.92;57.28
70248;BME280;57641;51.416;5.506;2022-08-21T07:41:15;101771.16;;;22.04;56.80
70248;BME280;57641;51.416;5.506;2022-08-21T07:43:41;101782.66;;;22.13;56.51
70248;BME280;57641;51.416;5.506;2022-08-21T07:46:07;101776.78;;;22.16;56.29
70248;BME280;57641;51.416;5.506;2022-08-21T07:48:32;101776.81;;;22.22;56.47
70248;BME280;57641;51.416;5.506;2022-08-21T07:51:02;101780.78;;;22.26;56.16
70248;BME280;57641;51.416;5.506;2022-08-21T07:53:30;101770.97;;;22.39;56.35
70248;BME280;57641;51.416;5.506;2022-08-21T07:55:58;101771.81;;;22.52;56.12
70248;BME280;57641;51.416;5.506;2022-08-21T07:58:24;101773.28;;;22.61;55.60
70248;BME280;57641;51.416;5.506;2022-08-21T08:00:50;101771.16;;;22.70;55.83
70248;BME280;57641;51.416;5.506;2022-08-21T08:03:15;101769.13;;;22.79;55.72
70248;BME280;57641;51.416;5.506;2022-08-21T08:05:41;101769.97;;;22.72;55.29
70248;BME280;57641;51.416;5.506;2022-08-21T08:08:07;101770.31;;;22.69;55.48
70248;BME280;57641;51.416;5.506;2022-08-21T08:10:32;101762.59;;;22.80;55.46
70248;BME280;57641;51.416;5.506;2022-08-21T08:12:58;101769.72;;;22.87;55.53
70248;BME280;57641;51.416;5.506;2022-08-21T08:15:26;101767.19;;;22.99;55.05
70248;BME280;57641;51.416;5.506;2022-08-21T08:17:53;101768.63;;;22.95;54.99
70248;BME280;57641;51.416;5.506;2022-08-21T08:20:20;101772.81;;;23.10;54.82
70248;BME280;57641;51.416;5.506;2022-08-21T08:22:47;101762.13;;;23.15;54.76
70248;BME280;57641;51.416;5.506;2022-08-21T08:25:14;101764.16;;;23.27;54.52
70248;BME280;57641;51.416;5.506;2022-08-21T08:27:40;101763.72;;;23.36;53.92
70248;BME280;57641;51.416;5.506;2022-08-21T08:30:07;101766.41;;;23.49;54.15
70248;BME280;57641;51.416;5.506;2022-08-21T08:32:33;101762.78;;;23.69;53.93
70248;BME280;57641;51.416;5.506;2022-08-21T08:34:58;101766.72;;;23.73;53.24
70248;BME280;57641;51.416;5.506;2022-08-21T08:37:24;101765.06;;;23.72;52.63
70248;BME280;57641;51.416;5.506;2022-08-21T08:39:50;101761.63;;;23.89;52.43
70248;BME280;57641;51.416;5.506;2022-08-21T08:42:26;101753.47;;;23.83;52.08
70248;BME280;57641;51.416;5.506;2022-08-21T08:44:58;101748.53;;;24.05;52.29
70248;BME280;57641;51.416;5.506;2022-08-21T08:47:26;101752.97;;;23.99;51.33
70248;BME280;57641;51.416;5.506;2022-08-21T08:50:04;101748.72;;;24.03;51.60
70248;BME280;57641;51.416;5.506;2022-08-21T08:52:36;101742.50;;;24.27;51.68
70248;BME280;57641;51.416;5.506;2022-08-21T08:55:15;101746.34;;;24.20;51.15
70248;BME280;57641;51.416;5.506;2022-08-21T08:57:48;101747.78;;;24.22;51.35
70248;BME280;57641;51.416;5.506;2022-08-21T09:00:18;101747.19;;;24.20;50.64
70248;BME280;57641;51.416;5.506;2022-08-21T09:02:46;101742.41;;;24.09;50.66
70248;BME280;57641;51.416;5.506;2022-08-21T09:05:24;101738.66;;;24.04;50.93
70248;BME280;57641;51.416;5.506;2022-08-21T09:11:10;101730.88;;;24.07;50.90
70248;BME280;57641;51.416;5.506;2022-08-21T09:16:31;101726.00;;;24.16;50.66
70248;BME280;57641;51.416;5.506;2022-08-21T09:19:26;101729.66;;;24.34;50.50
70248;BME280;57641;51.416;5.506;2022-08-21T09:22:32;101733.72;;;24.50;49.04
70248;BME280;57641;51.416;5.506;2022-08-21T09:27:47;101722.97;;;24.55;48.32
70248;BME280;57641;51.416;5.506;2022-08-21T09:30:14;101730.56;;;24.71;47.61
70248;BME280;57641;51.416;5.506;2022-08-21T09:32:40;101731.88;;;24.87;46.92
70248;BME280;57641;51.416;5.506;2022-08-21T09:40:31;101733.66;;;25.18;46.71
70248;BME280;57641;51.416;5.506;2022-08-21T09:43:01;101734.72;;;25.17;45.67
70248;BME280;57641;51.416;5.506;2022-08-21T09:45:27;101749.19;;;25.17;45.79
70248;BME280;57641;51.416;5.506;2022-08-21T09:47:53;101744.06;;;25.09;45.62
70248;BME280;57641;51.416;5.506;2022-08-21T09:50:26;101745.47;;;25.12;45.76
70248;BME280;57641;51.416;5.506;2022-08-21T09:52:55;101736.41;;;25.00;45.30
70248;BME280;57641;51.416;5.506;2022-08-21T09:55:47;101735.78;;;25.16;45.23
70248;BME280;57641;51.416;5.506;2022-08-21T09:58:34;101725.56;;;25.11;46.65
70248;BME280;57641;51.416;5.506;2022-08-21T10:01:02;101729.34;;;25.10;46.00
70248;BME280;57641;51.416;5.506;2022-08-21T10:03:28;101718.19;;;25.30;45.34
70248;BME280;57641;51.416;5.506;2022-08-21T10:06:05;101722.50;;;25.38;44.82
70248;BME280;57641;51.416;5.506;2022-08-21T10:08:35;101718.38;;;25.47;45.03
70248;BME280;57641;51.416;5.506;2022-08-21T10:11:11;101716.63;;;25.52;44.51
70248;BME280;57641;51.416;5.506;2022-08-21T10:30:00;101728.44;;;25.94;42.73
70248;BME280;57641;51.416;5.506;2022-08-21T10:33:13;101725.94;;;25.93;42.96
70248;BME280;57641;51.416;5.506;2022-08-21T10:41:05;101716.72;;;25.76;42.67
70248;BME280;57641;51.416;5.506;2022-08-21T10:46:20;101716.47;;;25.65;43.82
70248;BME280;57641;51.416;5.506;2022-08-21T10:49:31;101713.03;;;25.70;43.30
70248;BME280;57641;51.416;5.506;2022-08-21T10:55:11;101722.38;;;25.92;42.63
70248;BME280;57641;51.416;5.506;2022-08-21T10:58:11;101723.84;;;26.06;41.89
70248;BME280;57641;51.416;5.506;2022-08-21T11:00:46;101710.13;;;26.25;41.58
70248;BME280;57641;51.416;5.506;2022-08-21T11:03:24;101714.16;;;26.22;41.06
70248;BME280;57641;51.416;5.506;2022-08-21T11:08:58;101720.59;;;26.28;41.37
70248;BME280;57641;51.416;5.506;2022-08-21T11:11:38;101716.50;;;26.19;41.28
70248;BME280;57641;51.416;5.506;2022-08-21T11:16:44;101709.28;;;26.24;41.05
70248;BME280;57641;51.416;5.506;2022-08-21T11:19:42;101710.56;;;26.22;39.86
70248;BME280;57641;51.416;5.506;2022-08-21T11:22:24;101710.25;;;26.30;39.64
70248;BME280;57641;51.416;5.506;2022-08-21T11:25:03;101708.69;;;26.34;39.66
70248;BME280;57641;51.416;5.506;2022-08-21T11:27:54;101700.38;;;26.52;40.01
70248;BME280;57641;51.416;5.506;2022-08-21T11:30:22;101710.16;;;26.48;40.45
70248;BME280;57641;51.416;5.506;2022-08-21T11:38:35;101704.44;;;26.38;39.16
70248;BME280;57641;51.416;5.506;2022-08-21T11:41:30;101692.78;;;26.42;39.36
70248;BME280;57641;51.416;5.506;2022-08-21T11:47:09;101699.63;;;26.22;39.45
70248;BME280;57641;51.416;5.506;2022-08-21T11:49:57;101699.66;;;26.33;40.22
70248;BME280;57641;51.416;5.506;2022-08-21T11:52:39;101702.16;;;26.46;39.90
70248;BME280;57641;51.416;5.506;2022-08-21T11:55:18;101708.00;;;26.38;38.77
70248;BME280;57641;51.416;5.506;2022-08-21T11:57:56;101707.63;;;26.46;39.00
70248;BME280;57641;51.416;5.506;2022-08-21T12:02:58;101708.94;;;26.67;37.89
70248;BME280;57641;51.416;5.506;2022-08-21T12:05:39;101710.38;;;26.70;38.34
70248;BME280;57641;51.416;5.506;2022-08-21T12:08:14;101704.78;;;26.65;37.60
70248;BME280;57641;51.416;5.506;2022-08-21T12:10:58;101713.91;;;26.70;38.18
70248;BME280;57641;51.416;5.506;2022-08-21T12:13:27;101716.09;;;26.68;37.86
70248;BME280;57641;51.416;5.506;2022-08-21T12:16:09;101712.97;;;26.76;38.72
70248;BME280;57641;51.416;5.506;2022-08-21T12:18:35;101701.81;;;26.89;38.39
70248;BME280;57641;51.416;5.506;2022-08-21T12:21:23;101702.50;;;26.97;38.53
70248;BME280;57641;51.416;5.506;2022-08-21T12:26:51;101701.69;;;26.84;38.63
70248;BME280;57641;51.416;5.506;2022-08-21T12:29:30;101706.78;;;26.81;37.89
70248;BME280;57641;51.416;5.506;2022-08-21T12:34:37;101707.88;;;26.68;37.01
70248;BME280;57641;51.416;5.506;2022-08-21T12:39:58;101704.16;;;27.09;37.74
70248;BME280;57641;51.416;5.506;2022-08-21T12:42:41;101699.41;;;26.93;36.81
70248;BME280;57641;51.416;5.506;2022-08-21T12:45:28;101700.78;;;27.19;36.83
70248;BME280;57641;51.416;5.506;2022-08-21T12:48:00;101703.78;;;27.17;36.82
70248;BME280;57641;51.416;5.506;2022-08-21T12:51:07;101697.16;;;27.42;35.95
70248;BME280;57641;51.416;5.506;2022-08-21T12:53:58;101691.91;;;27.40;35.79
70248;BME280;57641;51.416;5.506;2022-08-21T12:56:32;101694.81;;;27.34;35.93
70248;BME280;57641;51.416;5.506;2022-08-21T12:59:06;101693.09;;;27.44;34.76
70248;BME280;57641;51.416;5.506;2022-08-21T13:01:36;101692.97;;;27.51;34.33
70248;BME280;57641;51.416;5.506;2022-08-21T13:04:09;101686.94;;;27.65;33.57
70248;BME280;57641;51.416;5.506;2022-08-21T13:06:43;101690.53;;;27.83;34.09
70248;BME280;57641;51.416;5.506;2022-08-21T13:09:16;101682.47;;;27.76;34.50
70248;BME280;57641;51.416;5.506;2022-08-21T13:11:44;101692.78;;;27.86;34.69
70248;BME280;57641;51.416;5.506;2022-08-21T13:14:20;101696.38;;;27.86;33.94
70248;BME280;57641;51.416;5.506;2022-08-21T13:16:47;101692.59;;;27.59;34.32
70248;BME280;57641;51.416;5.506;2022-08-21T13:19:17;101695.34;;;27.76;35.20
70248;BME280;57641;51.416;5.506;2022-08-21T13:21:44;101705.03;;;27.66;34.84
70248;BME280;57641;51.416;5.506;2022-08-21T13:26:47;101694.16;;;27.71;34.50
70248;BME280;57641;51.416;5.506;2022-08-21T13:29:16;101689.38;;;27.79;35.03
70248;BME280;57641;51.416;5.506;2022-08-21T13:31:49;101692.25;;;27.72;35.15
70248;BME280;57641;51.416;5.506;2022-08-21T13:34:18;101685.19;;;27.59;34.29
70248;BME280;57641;51.416;5.506;2022-08-21T13:36:45;101695.28;;;27.70;35.05
70248;BME280;57641;51.416;5.506;2022-08-21T13:39:16;101693.53;;;27.81;34.57
70248;BME280;57641;51.416;5.506;2022-08-21T13:41:46;101692.19;;;27.84;34.85
70248;BME280;57641;51.416;5.506;2022-08-21T13:44:17;101691.81;;;27.92;35.68
70248;BME280;57641;51.416;5.506;2022-08-21T13:46:43;101691.06;;;28.13;35.63
70248;BME280;57641;51.416;5.506;2022-08-21T13:49:10;101691.28;;;28.23;34.21
70248;BME280;57641;51.416;5.506;2022-08-21T13:51:39;101687.16;;;28.09;33.65
70248;BME280;57641;51.416;5.506;2022-08-21T13:54:24;101688.06;;;27.98;34.74
70248;BME280;57641;51.416;5.506;2022-08-21T13:56:51;101687.03;;;28.16;34.81
70248;BME280;57641;51.416;5.506;2022-08-21T13:59:25;101684.19;;;28.27;33.83
70248;BME280;57641;51.416;5.506;2022-08-21T14:01:57;101694.41;;;28.32;33.63
70248;BME280;57641;51.416;5.506;2022-08-21T14:04:35;101674.13;;;28.49;32.94
70248;BME280;57641;51.416;5.506;2022-08-21T14:07:03;101673.25;;;28.66;33.19
70248;BME280;57641;51.416;5.506;2022-08-21T14:09:42;101670.81;;;28.31;33.21
70248;BME280;57641;51.416;5.506;2022-08-21T14:12:32;101675.03;;;28.38;32.25
70248;BME280;57641;51.416;5.506;2022-08-21T14:15:04;101673.78;;;28.46;32.68